Time;durP1;ratioP1;P1;durP2;ratioP2;P2;SDS_P1;SDS_P2;PMS_P1;PMS_P2;Temp;Humidity;BMP_temperature;BMP_pressure;BME280_temperature;BME280_humidity;BME280_pressure;Samples;Min_cycle;Max_cycle;Signal;HPM_P1;HPM_P2
2022/04/26 03:37:05;;;;;;;16.17;7.50;;;5.10;94.90;;;;;;4955434;28;20790;-66
2022/04/26 03:39:35;;;;;;;14.82;8.27;;;5.10;95.00;;;;;;4959457;28;20646;-74
2022/04/26 03:42:02;;;;;;;19.00;9.23;;;5.20;95.10;;;;;;4943365;28;20031;-74
2022/04/26 03:44:28;;;;;;;18.05;8.43;;;5.10;95.10;;;;;;4958581;28;20130;-74
2022/04/26 03:46:54;;;;;;;17.45;8.82;;;5.10;95.10;;;;;;4961299;28;20031;-71
2022/04/26 03:49:21;;;;;;;20.05;10.20;;;5.10;95.10;;;;;;4960450;28;20543;-71
2022/04/26 03:51:47;;;;;;;19.23;9.68;;;5.10;95.30;;;;;;4958526;28;20023;-74
2022/04/26 03:54:13;;;;;;;18.05;9.25;;;5.20;95.40;;;;;;4959733;28;20022;-72
2022/04/26 03:56:39;;;;;;;17.92;9.10;;;5.30;95.60;;;;;;4958625;28;20742;-69
2022/04/26 03:59:05;;;;;;;17.00;8.68;;;5.30;95.70;;;;;;4959527;28;20027;-73
2022/04/26 04:01:30;;;;;;;15.63;9.00;;;5.40;95.50;;;;;;4962793;28;20403;-76
2022/04/26 04:03:56;;;;;;;16.35;8.02;;;5.40;95.20;;;;;;4961442;28;20030;-75
2022/04/26 04:06:22;;;;;;;18.00;7.85;;;5.40;95.10;;;;;;4956595;28;20066;-75
2022/04/26 04:08:48;;;;;;;13.35;7.75;;;5.40;94.80;;;;;;4959609;28;20099;-76
2022/04/26 04:11:14;;;;;;;15.07;7.97;;;5.30;94.70;;;;;;4955762;28;20050;-70
2022/04/26 04:13:39;;;;;;;13.75;7.80;;;5.30;94.50;;;;;;4962735;28;20033;-70
2022/04/26 04:16:05;;;;;;;18.50;7.47;;;5.30;94.40;;;;;;4963003;28;20031;-79
2022/04/26 04:21:16;;;;;;;10.73;6.47;;;5.30;93.90;;;;;;4958152;28;20785;-81
2022/04/26 04:23:41;;;;;;;11.18;6.13;;;5.20;93.80;;;;;;4959506;28;20035;-81
2022/04/26 04:26:10;;;;;;;14.43;7.00;;;5.20;93.70;;;;;;4954708;28;20086;-82
2022/04/26 04:28:36;;;;;;;11.93;6.20;;;5.20;93.50;;;;;;4959132;28;20132;-82
2022/04/26 04:31:02;;;;;;;12.35;6.43;;;5.20;93.50;;;;;;4958375;28;20034;-80
2022/04/26 04:33:28;;;;;;;12.77;7.20;;;5.20;93.40;;;;;;4964164;28;20030;-79
2022/04/26 04:35:54;;;;;;;9.70;5.80;;;5.20;93.30;;;;;;4944085;28;20031;-69
2022/04/26 04:38:20;;;;;;;12.18;6.90;;;5.20;93.20;;;;;;4957139;28;20029;-77
2022/04/26 04:40:46;;;;;;;11.93;6.50;;;5.20;93.10;;;;;;4954673;28;20367;-75
2022/04/26 04:43:12;;;;;;;13.93;7.32;;;5.20;93.00;;;;;;4953559;28;20709;-75
2022/04/26 04:45:39;;;;;;;14.20;7.43;;;5.20;92.90;;;;;;4954109;28;20645;-74
2022/04/26 04:48:05;;;;;;;12.00;6.70;;;5.20;93.00;;;;;;4962269;28;20031;-76
2022/04/26 04:50:32;;;;;;;16.13;7.20;;;5.20;93.10;;;;;;4960471;28;20095;-78
2022/04/26 04:52:58;;;;;;;13.65;7.00;;;5.30;93.10;;;;;;4959841;28;20559;-72
2022/04/26 04:55:24;;;;;;;12.95;7.32;;;5.40;93.00;;;;;;4956900;28;20034;-69
2022/04/26 04:57:50;;;;;;;18.95;9.15;;;5.40;93.10;;;;;;4960410;28;20114;-81
2022/04/26 05:00:16;;;;;;;22.02;9.80;;;5.50;93.30;;;;;;4958021;28;20133;-68
2022/04/26 05:02:42;;;;;;;15.85;9.15;;;5.70;93.50;;;;;;4957684;28;20039;-75
2022/04/26 05:05:08;;;;;;;19.58;11.15;;;5.90;93.70;;;;;;4943080;28;20046;-76
2022/04/26 05:07:33;;;;;;;17.95;10.57;;;6.00;93.80;;;;;;4941717;28;20822;-76
2022/04/26 05:09:59;;;;;;;23.23;10.77;;;6.30;94.00;;;;;;4960083;28;20027;-75
2022/04/26 05:12:25;;;;;;;22.45;11.50;;;6.50;94.00;;;;;;4958654;28;20875;-75
2022/04/26 05:14:51;;;;;;;25.00;11.80;;;6.70;93.80;;;;;;4956920;28;20177;-75
2022/04/26 05:17:16;;;;;;;24.23;12.07;;;6.90;93.60;;;;;;4949180;28;20050;-72
2022/04/26 05:19:42;;;;;;;20.00;10.18;;;7.10;93.30;;;;;;4956337;28;20026;-77
2022/04/26 05:22:09;;;;;;;23.75;11.57;;;7.40;93.10;;;;;;4953861;28;20506;-77
2022/04/26 05:24:58;;;;;;;19.73;10.50;;;7.70;92.90;;;;;;4958513;28;20053;-77
2022/04/26 05:27:26;;;;;;;25.48;11.85;;;8.10;92.40;;;;;;4956017;28;20045;-76
2022/04/26 05:29:53;;;;;;;23.10;9.95;;;8.70;91.70;;;;;;4954395;28;20035;-78
2022/04/26 05:32:21;;;;;;;22.20;10.32;;;9.40;90.60;;;;;;4957847;28;20109;-75
2022/04/26 05:34:47;;;;;;;20.20;10.75;;;10.40;88.40;;;;;;4955513;28;20046;-76
2022/04/26 05:37:14;;;;;;;19.70;10.02;;;11.90;83.40;;;;;;4957868;28;20258;-68
2022/04/26 05:39:39;;;;;;;16.65;8.70;;;13.30;77.20;;;;;;4959924;28;20031;-69
2022/04/26 05:42:05;;;;;;;13.40;8.02;;;14.30;70.80;;;;;;4953005;28;20827;-70
2022/04/26 05:44:31;;;;;;;14.10;8.40;;;15.60;64.50;;;;;;4956646;28;20200;-70
2022/04/26 05:46:57;;;;;;;14.25;8.60;;;17.00;59.80;;;;;;4960658;28;20132;-76
2022/04/26 05:49:22;;;;;;;12.25;8.63;;;18.70;53.60;;;;;;4961372;28;20121;-76
2022/04/26 05:51:50;;;;;;;13.50;8.10;;;19.80;50.20;;;;;;4955786;28;20039;-70
2022/04/26 05:54:16;;;;;;;13.35;8.75;;;20.10;48.10;;;;;;4955290;28;20534;-79
2022/04/26 05:56:42;;;;;;;12.23;8.23;;;20.40;47.50;;;;;;4958577;28;20042;-79
2022/04/26 05:59:08;;;;;;;14.52;8.18;;;21.40;45.60;;;;;;4951374;28;20749;-78
2022/04/26 06:01:33;;;;;;;15.98;8.52;;;22.10;43.60;;;;;;4952169;28;20035;-78
2022/04/26 06:03:59;;;;;;;14.50;8.13;;;22.00;42.50;;;;;;4957568;28;20041;-79
2022/04/26 06:06:25;;;;;;;13.07;8.75;;;22.10;42.40;;;;;;4952977;28;20019;-78
2022/04/26 06:08:51;;;;;;;14.38;8.77;;;22.70;41.60;;;;;;4957904;28;20030;-70
2022/04/26 06:11:17;;;;;;;15.77;7.38;;;23.60;39.80;;;;;;4953379;28;20503;-74
2022/04/26 06:13:43;;;;;;;11.57;7.70;;;23.40;38.80;;;;;;4958005;28;20186;-76
2022/04/26 06:16:09;;;;;;;10.52;6.90;;;23.80;38.30;;;;;;4958548;28;20891;-76
2022/04/26 06:18:35;;;;;;;10.25;7.53;;;25.00;36.70;;;;;;4952018;28;20082;-77
2022/04/26 06:21:01;;;;;;;9.05;6.72;;;26.80;34.70;;;;;;4954362;28;20031;-82
2022/04/26 06:23:27;;;;;;;10.65;6.65;;;27.90;32.30;;;;;;4957610;28;20023;-84
2022/04/26 06:25:54;;;;;;;13.07;6.70;;;27.60;31.90;;;;;;4942947;28;20765;-75
2022/04/26 06:28:19;;;;;;;9.98;7.03;;;26.90;31.60;;;;;;4958787;28;20106;-83
2022/04/26 06:30:46;;;;;;;9.75;6.53;;;25.60;33.60;;;;;;4960419;28;20058;-83
2022/04/26 06:33:12;;;;;;;9.38;6.13;;;24.50;34.80;;;;;;4961735;28;20061;-82
2022/04/26 06:35:38;;;;;;;8.68;5.53;;;24.10;35.70;;;;;;4957268;28;20145;-82
2022/04/26 06:38:04;;;;;;;8.45;5.35;;;24.10;35.00;;;;;;4960511;28;20039;-76
2022/04/26 06:40:30;;;;;;;12.32;5.57;;;24.60;34.80;;;;;;4944489;28;20395;-77
2022/04/26 06:42:55;;;;;;;7.50;4.88;;;24.60;34.20;;;;;;4956316;28;20027;-76
2022/04/26 06:45:21;;;;;;;7.13;4.60;;;24.00;34.90;;;;;;4953107;28;20443;-78
2022/04/26 06:47:49;;;;;;;7.15;4.72;;;23.80;35.30;;;;;;4940685;28;20038;-77
2022/04/26 06:50:15;;;;;;;5.93;4.45;;;24.30;34.50;;;;;;4940590;28;20133;-78
2022/04/26 06:52:41;;;;;;;8.48;5.00;;;24.50;33.60;;;;;;4957877;28;20035;-73
2022/04/26 06:55:07;;;;;;;7.10;4.38;;;24.30;33.00;;;;;;4954709;28;20074;-78
2022/04/26 06:57:36;;;;;;;5.53;3.85;;;24.10;32.90;;;;;;4957575;28;20035;-79
2022/04/26 07:00:07;;;;;;;8.20;4.75;;;24.10;32.60;;;;;;4959182;28;20031;-78
2022/04/26 07:02:33;;;;;;;5.80;4.10;;;24.20;32.90;;;;;;4954897;28;20043;-78
2022/04/26 07:04:59;;;;;;;5.40;4.25;;;24.60;32.50;;;;;;4942594;28;20034;-79
2022/04/26 07:07:25;;;;;;;6.40;3.72;;;24.60;32.40;;;;;;4934838;28;20035;-78
2022/04/26 07:09:51;;;;;;;6.00;3.72;;;26.20;30.10;;;;;;4952177;28;20055;-79
2022/04/26 07:12:16;;;;;;;9.23;3.78;;;26.10;29.70;;;;;;4955086;28;20526;-78
2022/04/26 07:14:42;;;;;;;8.77;3.67;;;25.00;31.00;;;;;;4955426;28;20026;-78
2022/04/26 07:17:08;;;;;;;5.47;3.45;;;24.80;31.20;;;;;;4952025;28;20027;-78
2022/04/26 07:19:35;;;;;;;5.18;3.55;;;24.20;32.40;;;;;;4952746;28;20126;-79
2022/04/26 07:22:03;;;;;;;6.15;3.90;;;23.70;32.20;;;;;;4958268;28;20027;-81
2022/04/26 07:24:33;;;;;;;8.00;4.18;;;23.20;33.50;;;;;;4950260;28;20077;-81
2022/04/26 07:26:59;;;;;;;5.50;3.60;;;23.40;32.80;;;;;;4956326;28;20097;-77
2022/04/26 07:29:25;;;;;;;3.42;3.08;;;24.20;32.70;;;;;;4943314;28;20034;-74
2022/04/26 07:31:51;;;;;;;5.15;3.42;;;25.20;30.90;;;;;;4959118;28;20384;-79
2022/04/26 07:34:23;;;;;;;8.38;4.05;;;26.30;29.70;;;;;;4942708;28;20031;-80
2022/04/26 07:36:51;;;;;;;6.95;4.00;;;28.20;28.80;;;;;;4945820;28;20112;-78
2022/04/26 07:39:19;;;;;;;5.70;2.78;;;30.40;27.00;;;;;;4948723;28;20027;-76
2022/04/26 07:41:46;;;;;;;5.43;3.88;;;31.50;25.30;;;;;;4956262;28;20027;-77
2022/04/26 07:44:13;;;;;;;3.20;2.60;;;30.00;26.90;;;;;;4944117;28;20043;-77
2022/04/26 07:46:40;;;;;;;2.97;2.35;;;28.60;26.70;;;;;;4958187;28;20066;-79
2022/04/26 07:49:06;;;;;;;4.82;2.67;;;27.50;27.90;;;;;;4952003;28;20031;-78
2022/04/26 07:51:32;;;;;;;4.53;2.53;;;26.50;28.60;;;;;;4961434;28;20093;-80
2022/04/26 07:53:59;;;;;;;4.55;2.85;;;25.60;29.10;;;;;;4957612;28;20047;-74
2022/04/26 07:56:27;;;;;;;3.97;2.80;;;25.50;29.30;;;;;;4961157;28;20060;-82
2022/04/26 07:58:53;;;;;;;3.63;2.42;;;26.00;28.60;;;;;;4962812;28;20137;-83
2022/04/26 08:01:19;;;;;;;3.25;2.53;;;26.20;29.20;;;;;;4961340;28;20071;-83
2022/04/26 08:03:45;;;;;;;4.47;3.25;;;25.50;28.20;;;;;;4959016;28;20031;-83
2022/04/26 08:06:10;;;;;;;3.58;2.88;;;24.50;29.70;;;;;;4961781;28;20035;-75
2022/04/26 08:08:36;;;;;;;13.15;6.80;;;24.20;30.30;;;;;;4961777;28;20458;-75
2022/04/26 08:11:03;;;;;;;8.98;5.05;;;24.70;29.70;;;;;;4945248;28;20333;-81
2022/04/26 08:13:30;;;;;;;2.80;2.20;;;24.40;29.50;;;;;;4958984;28;20035;-81
2022/04/26 08:15:56;;;;;;;3.08;2.25;;;23.10;31.10;;;;;;4958389;28;20030;-81
2022/04/26 08:18:22;;;;;;;3.50;2.33;;;22.80;31.00;;;;;;4960234;28;20027;-81
2022/04/26 08:20:48;;;;;;;3.22;2.10;;;23.70;31.20;;;;;;4955064;28;20751;-77
2022/04/26 08:23:13;;;;;;;5.47;2.20;;;26.50;28.90;;;;;;4961402;28;20037;-77
2022/04/26 08:28:25;;;;;;;3.70;2.17;;;24.70;29.70;;;;;;4958634;28;20031;-75
2022/04/26 08:30:51;;;;;;;3.28;1.88;;;24.10;29.60;;;;;;4948217;28;20039;-81
2022/04/26 08:33:17;;;;;;;6.32;1.92;;;24.10;30.60;;;;;;4957815;28;20026;-79
2022/04/26 08:35:43;;;;;;;3.85;2.55;;;24.10;30.30;;;;;;4959199;28;20079;-79
2022/04/26 08:38:08;;;;;;;5.93;2.15;;;23.70;30.10;;;;;;4958220;28;20035;-77
2022/04/26 08:40:35;;;;;;;4.13;2.10;;;24.90;29.50;;;;;;4958323;28;20777;-79
2022/04/26 08:43:02;;;;;;;2.97;1.90;;;26.70;28.10;;;;;;4961779;28;20849;-79
2022/04/26 08:45:28;;;;;;;3.17;1.92;;;29.00;26.80;;;;;;4958068;28;20030;-80
2022/04/26 08:53:23;;;;;;;4.28;2.25;;;30.50;25.00;;;;;;4955399;28;20566;-80
2022/04/26 08:55:55;;;;;;;3.30;2.67;;;31.70;24.70;;;;;;4957249;28;20060;-82
2022/04/26 08:58:23;;;;;;;2.70;2.20;;;30.00;25.30;;;;;;4955273;28;20054;-79
2022/04/26 09:01:07;;;;;;;2.30;1.95;;;28.00;26.90;;;;;;4957483;28;20037;-79
2022/04/26 09:03:38;;;;;;;5.75;2.40;;;26.30;29.10;;;;;;4950138;28;20027;-79
2022/04/26 09:06:07;;;;;;;3.08;2.00;;;26.00;29.10;;;;;;4956674;28;20069;-75
2022/04/26 09:08:34;;;;;;;4.38;2.20;;;28.20;27.40;;;;;;4937859;28;20130;-73
2022/04/26 09:11:00;;;;;;;4.20;2.33;;;31.50;25.30;;;;;;4956182;28;20476;-71
2022/04/26 09:13:26;;;;;;;7.32;2.40;;;32.80;23.80;;;;;;4945284;28;20110;-75
2022/04/26 09:15:56;;;;;;;3.88;2.20;;;34.20;24.00;;;;;;4954472;28;20058;-77
2022/04/26 09:18:28;;;;;;;2.85;2.03;;;34.00;23.10;;;;;;4956780;28;20078;-76
2022/04/26 09:21:06;;;;;;;5.38;2.00;;;33.60;24.20;;;;;;4955901;28;20819;-76
2022/04/26 09:23:32;;;;;;;2.45;1.77;;;35.50;23.10;;;;;;4945187;28;20035;-77
2022/04/26 09:26:08;;;;;;;2.10;1.70;;;37.30;22.30;;;;;;4943555;28;20094;-77
2022/04/26 09:28:37;;;;;;;2.45;2.15;;;39.10;21.30;;;;;;4946493;28;20562;-77
2022/04/26 09:31:19;;;;;;;2.20;1.67;;;38.60;21.50;;;;;;4953557;28;20883;-76
2022/04/26 09:33:49;;;;;;;2.95;1.90;;;35.00;22.60;;;;;;4954904;28;20118;-76
2022/04/26 09:36:17;;;;;;;2.78;1.83;;;32.60;23.60;;;;;;4953871;28;20039;-76
2022/04/26 09:38:55;;;;;;;2.10;1.90;;;33.30;24.10;;;;;;4957389;28;20058;-76
2022/04/26 09:41:22;;;;;;;3.25;2.10;;;32.70;23.80;;;;;;4955936;28;20129;-76
2022/04/26 09:44:01;;;;;;;2.90;2.00;;;31.80;24.00;;;;;;4952753;28;20045;-76
2022/04/26 09:46:52;;;;;;;4.30;2.10;;;30.20;25.70;;;;;;4954767;28;20486;-78
2022/04/26 09:49:21;;;;;;;2.78;2.38;;;27.60;27.40;;;;;;4942868;28;20568;-78
2022/04/26 09:51:51;;;;;;;3.58;2.00;;;25.90;28.30;;;;;;4961893;28;20038;-78
2022/04/26 09:54:18;;;;;;;3.13;2.20;;;27.40;27.20;;;;;;4956202;28;20034;-75
2022/04/26 09:56:45;;;;;;;2.92;2.10;;;30.50;25.60;;;;;;4959989;28;20442;-76
2022/04/26 09:59:22;;;;;;;3.45;2.22;;;31.50;24.80;;;;;;4956829;28;20105;-76
2022/04/26 10:01:50;;;;;;;4.22;1.83;;;31.20;24.60;;;;;;4957830;28;20049;-78
2022/04/26 10:04:20;;;;;;;3.22;2.15;;;30.00;25.40;;;;;;4954561;28;20027;-75
2022/04/26 10:06:49;;;;;;;2.80;2.00;;;29.20;25.70;;;;;;4953489;28;20125;-73
2022/04/26 10:09:15;;;;;;;2.92;2.05;;;28.20;26.10;;;;;;4957978;28;20096;-74
2022/04/26 10:11:41;;;;;;;2.00;1.80;;;28.00;26.20;;;;;;4952880;28;20038;-73
2022/04/26 10:14:09;;;;;;;2.17;1.38;;;27.10;26.50;;;;;;4953804;28;20039;-74
2022/04/26 10:16:36;;;;;;;1.90;1.67;;;27.70;26.60;;;;;;4940135;29;20070;-73
2022/04/26 10:19:06;;;;;;;3.78;1.75;;;30.30;25.20;;;;;;4954760;28;20023;-76
2022/04/26 10:21:41;;;;;;;2.83;1.88;;;33.40;23.70;;;;;;4954836;28;20138;-68
2022/04/26 10:24:23;;;;;;;2.90;2.00;;;32.30;23.90;;;;;;4935525;28;20047;-77
2022/04/26 10:26:51;;;;;;;2.47;1.70;;;29.30;24.50;;;;;;4956395;28;20031;-78
2022/04/26 10:29:26;;;;;;;3.90;2.28;;;28.20;25.30;;;;;;4959971;28;20406;-76
2022/04/26 10:31:55;;;;;;;2.92;1.38;;;27.90;26.30;;;;;;4954517;28;20896;-76
2022/04/26 10:34:27;;;;;;;2.15;1.70;;;25.60;26.20;;;;;;4958811;28;20110;-76
2022/04/26 10:37:13;;;;;;;3.25;1.98;;;23.80;27.70;;;;;;4957053;28;20925;-76
2022/04/26 10:39:43;;;;;;;3.17;1.80;;;22.80;30.00;;;;;;4952511;28;20050;-77
2022/04/26 10:42:11;;;;;;;2.63;1.40;;;23.50;30.20;;;;;;4948530;28;20589;-77
2022/04/26 10:44:48;;;;;;;2.70;1.73;;;25.10;27.70;;;;;;4949690;28;20900;-77
2022/04/26 10:47:18;;;;;;;3.33;1.77;;;26.30;25.80;;;;;;4956183;28;20035;-77
2022/04/26 10:49:47;;;;;;;1.60;1.30;;;26.40;25.90;;;;;;4952290;28;20043;-77
2022/04/26 10:52:22;;;;;;;1.38;1.23;;;26.30;25.60;;;;;;4958085;28;20035;-76
2022/04/26 10:55:03;;;;;;;3.40;1.38;;;26.20;26.30;;;;;;4954221;28;20055;-77
2022/04/26 10:57:44;;;;;;;1.98;1.42;;;26.00;27.30;;;;;;4956910;28;20093;-77
2022/04/26 11:00:28;;;;;;;2.63;1.80;;;26.00;27.20;;;;;;4936504;28;20059;-77
2022/04/26 11:03:01;;;;;;;2.25;1.58;;;26.90;26.30;;;;;;4953259;28;20035;-76
2022/04/26 11:05:30;;;;;;;2.92;1.60;;;27.10;26.10;;;;;;4954654;28;20843;-77
2022/04/26 11:07:56;;;;;;;3.17;1.42;;;25.70;27.60;;;;;;4955011;28;20105;-76
2022/04/26 11:10:26;;;;;;;2.50;1.60;;;24.10;28.60;;;;;;4953447;28;20035;-76
2022/04/26 11:12:53;;;;;;;3.80;1.77;;;22.60;30.10;;;;;;4955479;28;20046;-76
2022/04/26 11:15:24;;;;;;;2.25;1.30;;;21.70;30.40;;;;;;4957007;28;20557;-77
2022/04/26 11:17:51;;;;;;;2.58;1.70;;;21.10;31.60;;;;;;4957643;28;20023;-76
2022/04/26 11:20:24;;;;;;;4.30;1.83;;;20.80;31.80;;;;;;4957007;28;20033;-76
2022/04/26 11:22:55;;;;;;;1.83;1.50;;;20.50;32.80;;;;;;4957752;28;20035;-77
2022/04/26 11:28:11;;;;;;;;;;;20.10;34.50;;;;;;4945627;28;20035;-76
2022/04/26 11:30:45;;;;;;;2.75;2.10;;;20.00;35.00;;;;;;4960602;28;20994;-76
2022/04/26 11:33:19;;;;;;;2.40;2.00;;;19.60;34.00;;;;;;4958285;28;20035;-77
2022/04/26 11:35:54;;;;;;;2.42;1.38;;;19.40;35.20;;;;;;4957231;28;20113;-77
2022/04/26 11:38:20;;;;;;;2.22;1.65;;;19.20;35.30;;;;;;4958633;28;20144;-77
2022/04/26 11:40:47;;;;;;;1.88;1.67;;;19.10;36.50;;;;;;4960723;28;20034;-77
2022/04/26 11:43:16;;;;;;;4.90;1.98;;;19.00;34.70;;;;;;4962652;28;20034;-76
2022/04/26 11:45:44;;;;;;;3.03;1.58;;;18.80;35.60;;;;;;4958384;28;20030;-76
2022/04/26 11:48:18;;;;;;;2.33;1.75;;;18.50;34.70;;;;;;4961354;28;20069;-76
2022/04/26 11:50:46;;;;;;;3.63;1.90;;;18.40;36.10;;;;;;4959218;28;20082;-76
2022/04/26 11:53:15;;;;;;;2.80;1.80;;;18.40;35.60;;;;;;4959914;28;20452;-76
2022/04/26 11:56:02;;;;;;;3.08;2.00;;;18.60;35.70;;;;;;4961443;28;20564;-76
2022/04/26 11:58:27;;;;;;;3.53;1.50;;;18.80;35.00;;;;;;4958967;28;20046;-76
2022/04/26 12:00:59;;;;;;;1.92;1.50;;;19.00;34.90;;;;;;4952574;28;20019;-76
2022/04/26 12:03:31;;;;;;;5.20;3.45;;;19.20;34.00;;;;;;4957076;28;20924;-76
2022/04/26 12:06:03;;;;;;;1.55;1.38;;;19.40;34.30;;;;;;4961047;28;20038;-76
2022/04/26 12:08:36;;;;;;;1.63;1.52;;;19.50;34.30;;;;;;4963094;28;20781;-76
2022/04/26 12:11:22;;;;;;;5.38;1.75;;;19.60;33.70;;;;;;4962380;28;20042;-76
2022/04/26 12:13:59;;;;;;;2.28;1.40;;;19.70;33.10;;;;;;4961868;28;20054;-76
2022/04/26 12:16:25;;;;;;;1.45;1.33;;;19.70;32.70;;;;;;4963118;28;20049;-76
2022/04/26 12:18:52;;;;;;;3.05;1.30;;;19.60;34.60;;;;;;4953060;28;20039;-76
2022/04/26 12:21:18;;;;;;;2.03;1.40;;;19.50;31.70;;;;;;4959370;28;20830;-76
2022/04/26 12:23:44;;;;;;;2.03;1.48;;;19.50;33.40;;;;;;4958476;28;20043;-76
2022/04/26 12:26:10;;;;;;;2.13;1.67;;;19.50;32.70;;;;;;4960506;28;20038;-70
2022/04/26 12:28:51;;;;;;;3.25;1.42;;;19.50;33.80;;;;;;4955038;28;20162;-70
2022/04/26 12:31:26;;;;;;;2.13;1.45;;;19.60;32.70;;;;;;4955069;28;20047;-69
2022/04/26 12:34:14;;;;;;;2.78;1.45;;;19.60;32.80;;;;;;4961649;28;20574;-69
2022/04/26 12:36:55;;;;;;;1.90;1.42;;;19.60;31.20;;;;;;4958590;28;20027;-70
2022/04/26 12:39:21;;;;;;;2.35;1.48;;;19.60;31.50;;;;;;4958074;28;20088;-70
2022/04/26 12:41:52;;;;;;;2.03;1.50;;;19.60;31.90;;;;;;4961052;28;20085;-70
2022/04/26 12:44:18;;;;;;;1.20;1.10;;;19.60;31.50;;;;;;4956707;28;20036;-69
2022/04/26 12:50:27;;;;;;;1.40;1.30;;;19.60;31.80;;;;;;4958554;28;20027;-70
2022/04/26 12:52:38;;;;;;;3.10;1.27;;;20.20;34.10;;;;;;4942758;28;20038;-70
2022/04/26 12:55:04;;;;;;;2.20;1.38;;;20.30;32.50;;;;;;4952647;28;20053;-69
2022/04/26 12:57:29;;;;;;;1.55;1.35;;;20.10;31.20;;;;;;4956970;28;20031;-70
2022/04/26 12:59:55;;;;;;;1.52;1.30;;;20.00;33.60;;;;;;4958398;28;20652;-70
2022/04/26 13:02:21;;;;;;;2.80;1.40;;;20.10;32.90;;;;;;4955158;28;20031;-69
2022/04/26 13:04:46;;;;;;;1.63;1.30;;;20.10;34.30;;;;;;4954833;28;20565;-69
2022/04/26 13:07:13;;;;;;;1.90;1.67;;;20.30;33.20;;;;;;4957975;28;20031;-70
2022/04/26 13:09:39;;;;;;;2.15;1.40;;;20.40;33.00;;;;;;4957622;28;20034;-70
2022/04/26 13:12:05;;;;;;;1.45;1.35;;;20.70;31.90;;;;;;4956009;28;20045;-70
2022/04/26 13:14:31;;;;;;;2.10;1.33;;;20.80;30.10;;;;;;4943422;28;20145;-70
2022/04/26 13:16:57;;;;;;;1.98;1.40;;;20.90;31.00;;;;;;4956812;28;20030;-70
2022/04/26 13:19:23;;;;;;;1.33;1.23;;;21.00;30.80;;;;;;4943033;28;20031;-70
2022/04/26 13:21:49;;;;;;;2.38;1.42;;;21.10;31.50;;;;;;4954439;28;20429;-69
2022/04/26 13:24:15;;;;;;;1.92;1.40;;;21.20;32.70;;;;;;4941818;28;20399;-70
2022/04/26 13:26:41;;;;;;;2.20;1.33;;;21.40;31.00;;;;;;4961184;28;20039;-69
2022/04/26 13:29:07;;;;;;;1.63;1.35;;;21.40;31.60;;;;;;4956717;28;20054;-69
2022/04/26 13:31:32;;;;;;;1.60;1.50;;;21.50;30.70;;;;;;4956175;28;20121;-69
2022/04/26 13:33:58;;;;;;;1.58;1.40;;;21.70;30.00;;;;;;4952755;28;20035;-69
2022/04/26 13:36:27;;;;;;;1.58;1.25;;;21.70;29.90;;;;;;4960555;28;20034;-69
2022/04/26 13:38:55;;;;;;;4.15;1.60;;;21.50;28.60;;;;;;4943558;28;20122;-69
2022/04/26 13:41:21;;;;;;;3.50;1.90;;;21.40;30.30;;;;;;4959113;28;20827;-69
2022/04/26 13:43:46;;;;;;;2.47;1.60;;;21.50;29.20;;;;;;4957836;28;20030;-70
2022/04/26 13:46:12;;;;;;;2.30;1.35;;;21.40;30.00;;;;;;4937263;28;20034;-69
2022/04/26 13:48:38;;;;;;;3.20;1.48;;;21.50;30.20;;;;;;4960471;28;20118;-69
2022/04/26 13:51:04;;;;;;;4.00;1.52;;;21.70;31.20;;;;;;4938168;28;20130;-70
2022/04/26 13:53:30;;;;;;;4.35;1.88;;;21.80;30.70;;;;;;4954181;28;20033;-70
2022/04/26 13:55:56;;;;;;;4.30;1.70;;;21.90;30.20;;;;;;4959790;28;20105;-69
2022/04/26 13:58:22;;;;;;;1.95;1.73;;;21.70;31.30;;;;;;4952709;28;20054;-69
2022/04/26 14:00:48;;;;;;;1.92;1.45;;;21.60;31.90;;;;;;4960772;28;20045;-70
2022/04/26 14:03:13;;;;;;;2.22;1.75;;;21.60;32.80;;;;;;4958865;28;20249;-68
2022/04/26 14:05:39;;;;;;;4.03;2.13;;;21.70;32.70;;;;;;4954816;28;20502;-68
2022/04/26 14:08:05;;;;;;;2.72;1.70;;;21.70;31.90;;;;;;4954699;28;20038;-69
2022/04/26 14:10:31;;;;;;;2.58;2.05;;;21.60;31.00;;;;;;4950810;28;20041;-69
2022/04/26 14:12:58;;;;;;;3.38;2.05;;;21.50;32.40;;;;;;4943904;28;20030;-68
2022/04/26 14:23:37;;;;;;;2.08;1.70;;;21.30;33.00;;;;;;4954497;28;20030;-68
2022/04/26 14:26:03;;;;;;;2.58;1.77;;;21.40;32.20;;;;;;4952390;28;20035;-68
2022/04/26 14:28:29;;;;;;;2.33;1.30;;;21.50;32.40;;;;;;4933922;28;20031;-68
2022/04/26 14:30:55;;;;;;;2.33;1.40;;;21.50;30.20;;;;;;4953659;28;20041;-68
2022/04/26 14:33:20;;;;;;;2.47;1.55;;;21.20;29.30;;;;;;4954876;28;20118;-68
2022/04/26 14:35:46;;;;;;;5.72;2.13;;;20.90;29.80;;;;;;4954239;28;20038;-68
2022/04/26 14:38:12;;;;;;;5.53;2.10;;;20.80;30.80;;;;;;4955434;28;20418;-69
2022/04/26 14:40:38;;;;;;;5.75;2.10;;;20.70;31.40;;;;;;4954484;28;20145;-68
2022/04/26 14:43:09;;;;;;;2.50;1.70;;;20.70;31.20;;;;;;4956758;28;20066;-66
2022/04/26 14:45:42;;;;;;;1.63;1.30;;;20.60;33.20;;;;;;4935981;28;20444;-68
2022/04/26 14:48:09;;;;;;;3.00;1.50;;;20.50;31.40;;;;;;4952517;28;20118;-68
2022/04/26 14:50:37;;;;;;;2.95;1.55;;;20.40;31.60;;;;;;4940685;28;20506;-68
2022/04/26 14:53:03;;;;;;;2.42;1.50;;;20.40;31.10;;;;;;4951143;28;20035;-68
2022/04/26 14:55:28;;;;;;;2.28;1.40;;;20.40;31.80;;;;;;4942571;28;20081;-69
2022/04/26 14:57:55;;;;;;;3.30;1.33;;;20.50;32.40;;;;;;4953548;28;20399;-69
2022/04/26 15:00:20;;;;;;;2.65;1.60;;;20.50;32.30;;;;;;4958364;28;20121;-69
2022/04/26 15:02:46;;;;;;;1.58;1.27;;;20.60;32.40;;;;;;4956377;28;20060;-69
2022/04/26 15:05:13;;;;;;;3.55;1.50;;;20.60;31.80;;;;;;4941241;28;20538;-69
2022/04/26 15:10:25;;;;;;;2.08;1.65;;;20.40;31.20;;;;;;4943319;28;20415;-69
2022/04/26 15:18:22;;;;;;;2.47;1.38;;;20.40;31.70;;;;;;4952191;28;20030;-69
2022/04/26 15:20:52;;;;;;;2.90;1.48;;;20.40;32.70;;;;;;4957471;28;20069;-69
2022/04/26 15:23:19;;;;;;;3.08;1.30;;;20.30;31.10;;;;;;4958452;28;20038;-69
2022/04/26 15:25:52;;;;;;;4.30;1.65;;;20.10;31.00;;;;;;4954545;28;20042;-69
2022/04/26 15:28:19;;;;;;;2.75;1.70;;;19.90;31.60;;;;;;4942382;28;20034;-69
2022/04/26 15:30:45;;;;;;;1.85;1.45;;;19.80;31.70;;;;;;4959249;28;20022;-69
2022/04/26 15:33:12;;;;;;;1.75;1.52;;;19.60;31.10;;;;;;4958564;28;20507;-69
2022/04/26 15:35:38;;;;;;;1.60;1.45;;;19.50;31.30;;;;;;4955938;28;20026;-69
2022/04/26 15:38:07;;;;;;;3.63;1.38;;;19.30;31.20;;;;;;4957969;28;20045;-69
2022/04/26 15:40:34;;;;;;;1.75;1.50;;;19.20;32.30;;;;;;4956014;28;20038;-69
2022/04/26 15:43:00;;;;;;;3.28;1.90;;;19.20;33.30;;;;;;4952283;28;20519;-69
2022/04/26 15:45:26;;;;;;;2.78;1.63;;;19.10;33.70;;;;;;4948567;28;20039;-69
2022/04/26 15:47:51;;;;;;;3.63;1.50;;;18.90;33.10;;;;;;4957257;28;20388;-69
2022/04/26 15:50:18;;;;;;;3.38;1.65;;;18.70;34.30;;;;;;4954945;28;20058;-66
2022/04/26 15:52:44;;;;;;;2.65;1.67;;;18.70;34.20;;;;;;4954168;28;20031;-70
2022/04/26 15:55:10;;;;;;;1.60;1.50;;;18.50;35.30;;;;;;4956960;28;20501;-70
2022/04/26 15:57:37;;;;;;;2.53;1.80;;;18.50;36.10;;;;;;4941513;28;20027;-69
2022/04/26 16:00:04;;;;;;;2.33;1.92;;;18.50;36.60;;;;;;4959663;28;20116;-68
2022/04/26 16:02:34;;;;;;;3.45;1.80;;;18.50;35.90;;;;;;4953847;28;20043;-70
2022/04/26 16:05:00;;;;;;;2.10;1.73;;;18.50;34.10;;;;;;4957147;28;20031;-70
2022/04/26 16:07:25;;;;;;;2.05;1.73;;;18.50;35.50;;;;;;4961402;28;20989;-70
2022/04/26 16:20:49;;;;;;;3.58;2.03;;;18.20;37.30;;;;;;4940679;28;20026;-69
2022/04/26 16:23:14;;;;;;;1.80;1.60;;;18.20;36.60;;;;;;4943575;28;20599;-70
2022/04/26 16:25:40;;;;;;;3.97;2.22;;;18.30;37.20;;;;;;4944029;28;20030;-70
2022/04/26 16:28:06;;;;;;;2.97;1.52;;;18.20;37.40;;;;;;4956697;28;20530;-70
2022/04/26 16:30:33;;;;;;;1.52;1.30;;;18.20;37.80;;;;;;4959686;28;20510;-70
2022/04/26 16:33:01;;;;;;;3.05;2.03;;;18.10;37.60;;;;;;4956818;28;20490;-70
2022/04/26 16:35:27;;;;;;;2.55;1.30;;;18.00;38.90;;;;;;4959501;28;20031;-69
2022/04/26 16:37:55;;;;;;;2.05;1.30;;;17.80;39.80;;;;;;4955421;28;20035;-69
2022/04/26 16:40:21;;;;;;;2.25;1.45;;;17.70;39.30;;;;;;4958145;28;20399;-69
2022/04/26 16:42:47;;;;;;;1.73;1.13;;;17.60;40.10;;;;;;4958442;28;20564;-69
2022/04/26 16:45:13;;;;;;;2.47;1.60;;;17.50;40.90;;;;;;4955331;28;20562;-70
2022/04/26 16:47:39;;;;;;;2.10;1.10;;;17.40;43.00;;;;;;4958790;28;20035;-70
2022/04/26 16:50:09;;;;;;;3.28;1.40;;;17.40;43.30;;;;;;4959606;28;20797;-70
2022/04/26 16:52:36;;;;;;;2.58;1.63;;;17.40;43.70;;;;;;4959980;28;20035;-70
2022/04/26 16:55:02;;;;;;;2.20;1.48;;;17.40;42.40;;;;;;4961064;28;20042;-70
2022/04/26 16:57:28;;;;;;;2.85;1.55;;;17.40;43.50;;;;;;4956365;28;20033;-70
2022/04/26 16:59:56;;;;;;;2.03;1.50;;;17.30;44.30;;;;;;4957604;28;20399;-69
2022/04/26 17:02:23;;;;;;;1.60;1.40;;;17.30;41.70;;;;;;4958877;28;20411;-69
2022/04/26 17:04:49;;;;;;;2.92;1.17;;;17.10;42.80;;;;;;4960970;28;20069;-69
2022/04/26 17:07:15;;;;;;;4.40;1.40;;;16.90;43.80;;;;;;4959871;28;20470;-69
2022/04/26 17:09:40;;;;;;;2.72;1.50;;;16.80;45.20;;;;;;4952804;28;20489;-69